Time;durP1;ratioP1;P1;durP2;ratioP2;P2;SDS_P1;SDS_P2;PMS_P1;PMS_P2;Temp;Humidity;BMP_temperature;BMP_pressure;BME280_temperature;BME280_humidity;BME280_pressure;Samples;Min_cycle;Max_cycle;Signal;HPM_P1;HPM_P2
2023/08/04 00:01:07;;;;;;;7.85;3.65;;;19.40;94.40;;;;;;7379967;19;20006;-78
2023/08/04 00:03:39;;;;;;;8.07;3.53;;;19.40;94.70;;;;;;7377079;19;20010;-77
2023/08/04 00:06:12;;;;;;;;;;;19.40;94.40;;;;;;7401641;19;20007;-76
2023/08/04 00:08:42;;;;;;;9.93;3.40;;;19.40;94.50;;;;;;7380772;19;19931;-77
2023/08/04 00:11:11;;;;;;;7.30;3.53;;;19.40;94.30;;;;;;7379186;19;20011;-77
2023/08/04 00:13:39;;;;;;;9.88;3.50;;;19.40;94.40;;;;;;7379163;19;20014;-77
2023/08/04 00:19:19;;;;;;;9.20;3.37;;;19.40;94.30;;;;;;7375963;19;19991;-77
2023/08/04 00:21:51;;;;;;;6.55;3.75;;;19.40;94.40;;;;;;7377197;19;20242;-78
2023/08/04 00:24:19;;;;;;;7.18;3.40;;;19.40;94.40;;;;;;7399912;19;20280;-77
2023/08/04 00:26:48;;;;;;;11.25;4.10;;;19.50;94.50;;;;;;7378585;19;20011;-78
2023/08/04 00:29:17;;;;;;;10.40;3.20;;;19.40;94.50;;;;;;7378131;19;20020;-76
2023/08/04 00:31:45;;;;;;;15.55;3.92;;;19.40;94.50;;;;;;7378393;19;20011;-77
2023/08/04 00:34:14;;;;;;;11.30;3.80;;;19.40;94.40;;;;;;7377918;19;20002;-77
2023/08/04 00:36:44;;;;;;;9.60;3.63;;;19.40;94.40;;;;;;7377688;19;20010;-77
2023/08/04 00:39:16;;;;;;;10.32;3.97;;;19.40;94.40;;;;;;7397276;19;20006;-77
2023/08/04 00:41:44;;;;;;;6.28;3.72;;;19.40;94.50;;;;;;7377244;19;20054;-76
2023/08/04 00:44:13;;;;;;;6.72;3.60;;;19.40;94.40;;;;;;7376651;19;20006;-76
2023/08/04 00:46:42;;;;;;;14.73;3.53;;;19.40;94.50;;;;;;7377826;19;20019;-77
2023/08/04 00:49:11;;;;;;;5.45;3.63;;;19.40;94.50;;;;;;7380084;19;20369;-78
2023/08/04 00:51:42;;;;;;;5.65;3.45;;;19.40;94.50;;;;;;7384978;19;20013;-77
2023/08/04 00:54:11;;;;;;;13.07;3.95;;;19.30;94.50;;;;;;7406534;19;20010;-77
2023/08/04 00:56:42;;;;;;;5.85;3.70;;;19.30;94.60;;;;;;7383722;19;20007;-76
2023/08/04 00:59:11;;;;;;;11.05;3.65;;;19.30;94.70;;;;;;7383844;19;20067;-76
2023/08/04 01:01:40;;;;;;;8.77;3.53;;;19.30;94.90;;;;;;7385027;19;20384;-77
2023/08/04 01:04:09;;;;;;;11.43;3.80;;;19.40;94.60;;;;;;7384718;19;20069;-76
2023/08/04 01:06:50;;;;;;;7.60;3.10;;;19.40;94.60;;;;;;7384414;19;20007;-77
2023/08/04 01:09:25;;;;;;;;;;;19.30;94.60;;;;;;7407528;19;20011;-77
2023/08/04 01:12:03;;;;;;;11.80;4.15;;;19.40;94.60;;;;;;7383972;19;19915;-77
2023/08/04 01:14:35;;;;;;;10.25;3.35;;;19.30;94.60;;;;;;7383622;19;20010;-77
2023/08/04 01:17:06;;;;;;;13.85;3.97;;;19.40;95.10;;;;;;7383852;19;20013;-76
2023/08/04 01:19:37;;;;;;;11.20;3.85;;;19.30;94.60;;;;;;7382405;19;20046;-77
2023/08/04 01:22:08;;;;;;;10.57;3.70;;;19.30;94.70;;;;;;7381872;19;20003;-76
2023/08/04 01:24:37;;;;;;;;;;;19.30;94.80;;;;;;7384265;19;20058;-77
2023/08/04 01:27:07;;;;;;;17.85;4.10;;;19.40;94.80;;;;;;7405326;19;19994;-76
2023/08/04 01:29:36;;;;;;;9.73;3.60;;;19.40;94.80;;;;;;7382845;19;20396;-77
2023/08/04 01:32:05;;;;;;;20.83;4.38;;;19.40;94.90;;;;;;7384061;19;20011;-77
2023/08/04 01:34:34;;;;;;;10.38;3.53;;;19.40;94.90;;;;;;7383376;19;20020;-77
2023/08/04 01:37:03;;;;;;;8.98;4.28;;;19.40;95.10;;;;;;7383485;19;20010;-77
2023/08/04 01:39:35;;;;;;;15.55;4.20;;;19.40;95.00;;;;;;7403053;19;20034;-76
2023/08/04 01:42:03;;;;;;;7.07;3.92;;;19.40;94.90;;;;;;7387494;19;20006;-77
2023/08/04 01:44:32;;;;;;;11.35;4.03;;;19.50;95.10;;;;;;7391669;19;20013;-76
2023/08/04 01:47:01;;;;;;;9.43;4.03;;;19.50;95.20;;;;;;7392787;19;20026;-76
2023/08/04 01:49:30;;;;;;;11.77;3.72;;;19.50;95.30;;;;;;7392730;19;20026;-77
2023/08/04 01:51:58;;;;;;;10.13;4.10;;;19.50;95.60;;;;;;7393874;19;20003;-77
2023/08/04 01:54:27;;;;;;;8.20;4.60;;;19.50;95.30;;;;;;7413856;19;20252;-76
2023/08/04 01:56:58;;;;;;;14.88;4.45;;;19.50;95.10;;;;;;7384880;19;20010;-77
2023/08/04 01:59:27;;;;;;;6.15;4.32;;;19.50;95.10;;;;;;7383219;19;20011;-76
2023/08/04 02:01:56;;;;;;;14.45;4.20;;;19.50;95.00;;;;;;7384928;19;20014;-76
2023/08/04 02:04:24;;;;;;;10.13;4.25;;;19.50;95.20;;;;;;7382875;19;20010;-76
2023/08/04 02:06:53;;;;;;;9.38;4.25;;;19.50;95.20;;;;;;7382627;19;20019;-75
2023/08/04 02:09:22;;;;;;;4.53;3.72;;;19.40;95.20;;;;;;7403856;19;20011;-76
2023/08/04 02:11:51;;;;;;;8.13;4.10;;;19.40;95.00;;;;;;7381508;19;20421;-76
2023/08/04 02:14:23;;;;;;;12.95;3.80;;;19.40;95.00;;;;;;7381847;19;20026;-76
2023/08/04 02:16:51;;;;;;;7.50;3.58;;;19.40;94.90;;;;;;7382358;19;20011;-76
2023/08/04 02:19:21;;;;;;;8.82;4.10;;;19.40;94.90;;;;;;7380899;19;20411;-75
2023/08/04 02:21:49;;;;;;;6.75;3.70;;;19.40;94.90;;;;;;7382195;19;20026;-77
2023/08/04 02:24:18;;;;;;;7.25;3.78;;;19.40;95.00;;;;;;7403654;19;20024;-78
2023/08/04 02:26:47;;;;;;;10.82;3.88;;;19.40;95.00;;;;;;7381559;19;20027;-77
2023/08/04 02:29:16;;;;;;;13.25;3.88;;;19.30;94.90;;;;;;7380613;19;20015;-76
2023/08/04 02:31:47;;;;;;;4.65;3.25;;;19.40;94.90;;;;;;7381570;19;20019;-76
2023/08/04 02:34:16;;;;;;;11.70;4.63;;;19.30;94.90;;;;;;7381616;19;20002;-76
2023/08/04 02:36:45;;;;;;;14.98;4.00;;;19.30;95.00;;;;;;7381264;19;20006;-77
2023/08/04 02:39:14;;;;;;;8.00;4.03;;;19.30;95.00;;;;;;7401623;19;20015;-76
2023/08/04 02:41:42;;;;;;;9.05;4.13;;;19.30;95.00;;;;;;7380495;19;20011;-77
2023/08/04 02:44:11;;;;;;;5.20;3.60;;;19.30;95.00;;;;;;7381154;19;20066;-77
2023/08/04 02:46:40;;;;;;;9.88;3.50;;;19.30;95.00;;;;;;7381029;19;20006;-77
2023/08/04 02:49:11;;;;;;;8.63;3.83;;;19.20;95.00;;;;;;7379646;19;20091;-77
2023/08/04 02:51:40;;;;;;;;;;;19.20;95.10;;;;;;7381863;19;20074;-76
2023/08/04 02:54:09;;;;;;;17.65;3.97;;;19.30;95.00;;;;;;7402515;19;19924;-77
2023/08/04 02:56:37;;;;;;;9.68;3.88;;;19.20;94.80;;;;;;7381265;19;20226;-77
2023/08/04 02:59:06;;;;;;;10.35;3.95;;;19.20;94.80;;;;;;7379642;19;20079;-76
2023/08/04 03:01:35;;;;;;;9.63;4.10;;;19.20;94.90;;;;;;7381620;19;20030;-78
2023/08/04 03:04:04;;;;;;;9.43;3.85;;;19.20;94.80;;;;;;7381967;19;20002;-77
2023/08/04 03:06:35;;;;;;;9.50;3.95;;;19.20;94.90;;;;;;7402888;19;20548;-77
2023/08/04 03:09:03;;;;;;;;;;;19.20;95.00;;;;;;7382232;19;20003;-76
2023/08/04 03:11:32;;;;;;;9.10;4.00;;;19.20;95.00;;;;;;7378430;19;19917;-77
2023/08/04 03:14:01;;;;;;;4.82;3.85;;;19.10;94.80;;;;;;7379678;19;20411;-77
2023/08/04 03:16:30;;;;;;;13.10;4.28;;;19.10;95.00;;;;;;7380035;19;20364;-77
2023/08/04 03:18:58;;;;;;;10.60;3.80;;;19.10;94.90;;;;;;7379978;19;20023;-76
2023/08/04 03:21:27;;;;;;;7.70;3.78;;;19.10;94.90;;;;;;7401728;19;20023;-77
2023/08/04 03:23:58;;;;;;;16.92;4.32;;;19.10;94.80;;;;;;7379266;19;20003;-77
2023/08/04 03:26:27;;;;;;;12.30;4.80;;;19.10;94.80;;;;;;7380036;19;20236;-78
2023/08/04 03:28:56;;;;;;;21.98;4.53;;;19.10;94.70;;;;;;7379755;19;20009;-77
2023/08/04 03:31:25;;;;;;;7.90;4.10;;;19.10;94.70;;;;;;7380185;19;20027;-77
2023/08/04 03:33:54;;;;;;;10.18;5.63;;;19.10;94.70;;;;;;7379061;19;20004;-77
2023/08/04 03:36:23;;;;;;;15.95;5.50;;;19.00;94.70;;;;;;7399766;19;20031;-76
2023/08/04 03:38:51;;;;;;;13.90;5.43;;;19.00;94.80;;;;;;7378381;19;20014;-75
2023/08/04 03:41:25;;;;;;;;;;;19.00;94.80;;;;;;7379954;19;20010;-75
2023/08/04 03:43:54;;;;;;;9.18;4.85;;;19.00;94.80;;;;;;7379504;19;19911;-75
2023/08/04 03:46:25;;;;;;;9.20;5.05;;;19.00;94.80;;;;;;7379400;19;20027;-76
2023/08/04 03:48:53;;;;;;;16.38;5.55;;;19.00;94.90;;;;;;7377896;19;20270;-76
2023/08/04 03:51:22;;;;;;;15.95;5.93;;;19.00;94.90;;;;;;7400727;19;20023;-75
2023/08/04 03:53:51;;;;;;;17.25;5.40;;;19.00;94.90;;;;;;7385056;19;20074;-76
2023/08/04 03:56:25;;;;;;;17.77;5.53;;;19.00;95.00;;;;;;7387639;19;20025;-76
2023/08/04 03:58:53;;;;;;;15.70;5.72;;;19.10;95.10;;;;;;7386967;19;20003;-77
2023/08/04 04:01:22;;;;;;;17.60;5.22;;;19.10;95.20;;;;;;7388387;19;20083;-76
2023/08/04 04:03:51;;;;;;;18.02;6.28;;;19.10;95.10;;;;;;7388601;19;20234;-78
2023/08/04 04:06:19;;;;;;;19.48;6.78;;;19.10;95.10;;;;;;7403794;19;20242;-75
2023/08/04 04:08:48;;;;;;;19.55;7.20;;;19.20;95.10;;;;;;7378726;19;20256;-76
2023/08/04 04:11:17;;;;;;;24.60;10.15;;;19.20;95.30;;;;;;7379154;19;20027;-75
2023/08/04 04:13:48;;;;;;;20.13;10.10;;;19.20;95.30;;;;;;7378959;19;20009;-75
2023/08/04 04:16:17;;;;;;;;;;;19.10;95.50;;;;;;7379440;19;20007;-76
2023/08/04 04:18:46;;;;;;;33.28;12.85;;;19.10;95.80;;;;;;7378316;19;19911;-76
2023/08/04 04:21:14;;;;;;;27.92;12.02;;;19.00;96.10;;;;;;7400002;19;20011;-75
2023/08/04 04:23:43;;;;;;;33.25;14.65;;;18.90;96.40;;;;;;7382314;19;20010;-77
2023/08/04 04:26:12;;;;;;;30.00;13.48;;;19.00;96.50;;;;;;7385418;19;20003;-76
2023/08/04 04:28:40;;;;;;;30.92;14.20;;;19.00;96.80;;;;;;7385655;19;20007;-76
2023/08/04 04:31:12;;;;;;;33.60;14.68;;;19.00;96.90;;;;;;7385715;19;20007;-77
2023/08/04 04:33:40;;;;;;;36.20;13.27;;;19.00;97.00;;;;;;7382729;19;20657;-77
2023/08/04 04:36:09;;;;;;;42.28;16.00;;;18.90;97.10;;;;;;7407025;19;20279;-76
2023/08/04 04:38:38;;;;;;;34.95;15.70;;;19.00;97.20;;;;;;7384407;19;20042;-77
2023/08/04 04:41:07;;;;;;;33.67;14.55;;;18.90;97.20;;;;;;7385519;19;19999;-78
2023/08/04 04:43:36;;;;;;;33.25;15.48;;;19.00;97.30;;;;;;7385501;19;20003;-77
2023/08/04 04:46:05;;;;;;;38.15;14.70;;;19.00;97.30;;;;;;7385185;19;20003;-77
2023/08/04 04:48:38;;;;;;;31.98;15.60;;;19.00;97.30;;;;;;7399031;19;20725;-76
2023/08/04 04:51:06;;;;;;;37.88;15.55;;;19.00;97.40;;;;;;7406895;19;20007;-78
2023/08/04 04:53:35;;;;;;;37.90;15.13;;;19.00;97.40;;;;;;7385899;19;20006;-75
2023/08/04 04:56:04;;;;;;;43.95;14.35;;;19.00;97.50;;;;;;7384576;19;20003;-77
2023/08/04 04:58:32;;;;;;;32.03;14.15;;;19.10;97.50;;;;;;7385482;19;20014;-77
2023/08/04 05:01:05;;;;;;;41.33;15.48;;;19.10;97.50;;;;;;7385407;19;20002;-75
2023/08/04 05:03:36;;;;;;;38.45;15.63;;;19.10;97.40;;;;;;7398311;19;20013;-76
2023/08/04 05:06:05;;;;;;;35.30;15.90;;;19.10;97.40;;;;;;7405999;19;20010;-77
2023/08/04 05:08:34;;;;;;;36.25;15.45;;;19.20;97.40;;;;;;7383687;19;20082;-76
2023/08/04 05:11:03;;;;;;;37.78;15.52;;;19.20;97.50;;;;;;7384388;19;20011;-75
2023/08/04 05:13:31;;;;;;;41.58;14.60;;;19.20;97.30;;;;;;7384480;19;20016;-76
2023/08/04 05:16:00;;;;;;;35.83;13.35;;;19.20;97.40;;;;;;7389460;19;20007;-77
2023/08/04 05:18:29;;;;;;;31.90;14.23;;;19.30;97.40;;;;;;7404563;19;20010;-78
2023/08/04 05:21:01;;;;;;;37.22;14.60;;;19.30;97.40;;;;;;7381274;19;20413;-77
2023/08/04 05:23:29;;;;;;;32.03;14.57;;;19.20;97.30;;;;;;7383543;19;20006;-77
2023/08/04 05:25:58;;;;;;;45.30;16.45;;;19.20;97.50;;;;;;7383523;19;20051;-76
2023/08/04 05:28:30;;;;;;;36.08;16.23;;;18.90;98.20;;;;;;7384056;19;20010;-77
2023/08/04 05:30:59;;;;;;;;;;;19.00;97.80;;;;;;7382099;19;20009;-76
2023/08/04 05:33:28;;;;;;;33.75;16.10;;;19.00;97.90;;;;;;7404970;19;20242;-76
2023/08/04 05:35:57;;;;;;;44.72;16.38;;;19.00;97.90;;;;;;7381267;19;20013;-77
2023/08/04 05:38:29;;;;;;;40.67;17.52;;;18.90;98.10;;;;;;7383234;19;20026;-75
2023/08/04 05:40:57;;;;;;;;;;;18.90;98.00;;;;;;7382931;19;20393;-76
2023/08/04 05:43:26;;;;;;;40.88;15.70;;;19.00;98.10;;;;;;7383449;19;19922;-75
2023/08/04 05:45:55;;;;;;;40.13;15.43;;;18.90;98.00;;;;;;7385138;19;20007;-77
2023/08/04 05:48:24;;;;;;;32.83;14.63;;;18.90;98.20;;;;;;7404522;19;20003;-76
2023/08/04 05:50:56;;;;;;;38.88;15.02;;;18.80;98.40;;;;;;7382790;19;20019;-76
2023/08/04 05:53:31;;;;;;;29.98;17.05;;;18.90;98.40;;;;;;7382623;19;20028;-75
2023/08/04 05:55:59;;;;;;;35.58;16.92;;;19.00;98.20;;;;;;7383000;19;20556;-77
2023/08/04 05:58:28;;;;;;;30.13;14.80;;;19.10;98.10;;;;;;7382777;19;20010;-76
2023/08/04 06:00:57;;;;;;;32.15;15.27;;;19.20;97.90;;;;;;7381779;19;20413;-76
2023/08/04 06:03:26;;;;;;;32.83;14.65;;;19.20;97.80;;;;;;7404507;19;20019;-76
2023/08/04 06:05:54;;;;;;;32.53;14.98;;;19.10;98.20;;;;;;7384177;19;20006;-77
2023/08/04 06:08:23;;;;;;;33.70;15.15;;;19.20;97.80;;;;;;7388245;19;20010;-76
2023/08/04 06:10:55;;;;;;;29.52;13.98;;;19.30;97.70;;;;;;7390251;19;20011;-76
2023/08/04 06:13:23;;;;;;;;;;;19.30;97.60;;;;;;7392970;19;20002;-77
2023/08/04 06:15:52;;;;;;;31.83;13.88;;;19.40;97.70;;;;;;7389438;19;19911;-75
2023/08/04 06:18:21;;;;;;;27.02;12.93;;;19.40;97.50;;;;;;7405895;19;20040;-76
2023/08/04 06:20:51;;;;;;;26.33;11.80;;;19.40;97.50;;;;;;7380820;19;20003;-76
2023/08/04 06:23:22;;;;;;;29.42;13.98;;;19.40;97.40;;;;;;7382143;19;20066;-76
2023/08/04 06:25:53;;;;;;;29.85;13.63;;;19.50;97.40;;;;;;7382162;19;20084;-75
2023/08/04 06:28:22;;;;;;;;;;;19.50;97.40;;;;;;7382512;19;20091;-76
2023/08/04 06:30:50;;;;;;;28.70;12.45;;;19.50;97.40;;;;;;7380427;19;19924;-76
2023/08/04 06:33:19;;;;;;;29.33;13.13;;;19.50;97.40;;;;;;7402995;19;20006;-76
2023/08/04 06:35:48;;;;;;;27.67;12.10;;;19.50;97.30;;;;;;7381527;19;20011;-78
2023/08/04 06:38:19;;;;;;;28.30;12.15;;;19.60;97.40;;;;;;7381699;19;20009;-77
2023/08/04 06:40:48;;;;;;;28.00;10.82;;;19.70;97.40;;;;;;7381247;19;20011;-77
2023/08/04 06:43:20;;;;;;;25.23;11.55;;;19.80;97.20;;;;;;7382725;19;20366;-77
2023/08/04 06:45:49;;;;;;;28.35;11.40;;;19.70;97.20;;;;;;7380048;19;20009;-77
2023/08/04 06:48:18;;;;;;;27.40;11.55;;;19.70;97.10;;;;;;7401753;19;20006;-76
2023/08/04 06:50:47;;;;;;;22.65;12.05;;;19.70;97.20;;;;;;7380974;19;20086;-76
2023/08/04 06:53:15;;;;;;;23.88;11.30;;;19.70;97.20;;;;;;7380112;19;20026;-76
2023/08/04 06:55:45;;;;;;;23.58;10.38;;;19.70;97.20;;;;;;7379839;19;20002;-76
2023/08/04 06:58:14;;;;;;;23.13;10.18;;;19.80;97.10;;;;;;7380050;19;20020;-76
2023/08/04 07:00:45;;;;;;;39.20;10.10;;;19.90;97.10;;;;;;7379367;19;20020;-75
2023/08/04 07:03:35;;;;;;;;;;;19.90;97.10;;;;;;7403052;19;20003;-80
2023/08/04 07:06:12;;;;;;;23.55;10.30;;;19.90;97.00;;;;;;7383685;19;19910;-80
2023/08/04 07:08:45;;;;;;;24.90;10.10;;;19.90;96.90;;;;;;7383813;19;20100;-79
2023/08/04 07:11:17;;;;;;;21.95;9.77;;;19.80;97.00;;;;;;7384272;19;20097;-77
2023/08/04 07:13:47;;;;;;;20.80;9.98;;;19.70;97.30;;;;;;7385852;19;20006;-79
2023/08/04 07:16:19;;;;;;;22.02;9.63;;;19.60;97.40;;;;;;7380184;19;20006;-76
2023/08/04 07:18:47;;;;;;;;;;;19.80;97.50;;;;;;7382246;19;20030;-77
2023/08/04 07:21:17;;;;;;;19.70;9.50;;;19.80;97.20;;;;;;7400816;19;19958;-76
2023/08/04 07:23:56;;;;;;;18.27;8.98;;;19.80;97.20;;;;;;7380991;19;20020;-78
2023/08/04 07:26:28;;;;;;;17.83;9.52;;;19.90;97.20;;;;;;7380254;19;20007;-76
2023/08/04 07:28:57;;;;;;;20.38;9.98;;;19.70;97.30;;;;;;7384098;19;20014;-78
2023/08/04 07:31:28;;;;;;;22.92;9.65;;;19.60;97.50;;;;;;7381036;19;20011;-77
2023/08/04 07:33:59;;;;;;;28.33;9.75;;;19.50;97.50;;;;;;7380102;19;20015;-79
2023/08/04 07:36:28;;;;;;;26.77;9.70;;;19.70;97.70;;;;;;7402390;19;20363;-76
2023/08/04 07:38:59;;;;;;;19.35;9.13;;;19.70;97.50;;;;;;7382348;19;20676;-76
2023/08/04 07:41:31;;;;;;;20.23;8.55;;;19.80;97.40;;;;;;7382823;19;20007;-78
2023/08/04 07:44:04;;;;;;;42.00;12.00;;;19.80;97.30;;;;;;7384278;19;20034;-76
2023/08/04 07:46:39;;;;;;;22.67;9.82;;;19.80;97.40;;;;;;7382913;19;20058;-78
2023/08/04 07:49:08;;;;;;;20.02;7.72;;;19.90;97.10;;;;;;7380905;19;20010;-77
2023/08/04 07:51:37;;;;;;;17.38;7.18;;;19.90;97.10;;;;;;7379585;19;20006;-77
2023/08/04 07:54:06;;;;;;;21.30;8.05;;;20.00;96.90;;;;;;7399821;19;20030;-77
2023/08/04 07:56:35;;;;;;;17.27;7.18;;;20.00;96.90;;;;;;7380365;19;20481;-78
2023/08/04 07:59:04;;;;;;;27.02;7.53;;;20.10;96.90;;;;;;7388151;19;20267;-77
2023/08/04 08:01:46;;;;;;;22.33;6.95;;;20.10;96.60;;;;;;7391158;19;20030;-80
2023/08/04 08:04:15;;;;;;;22.60;6.57;;;19.80;97.00;;;;;;7390230;19;20070;-79
2023/08/04 08:06:50;;;;;;;14.90;6.32;;;19.80;97.30;;;;;;7389552;19;20227;-81
2023/08/04 08:09:19;;;;;;;16.00;6.47;;;20.10;97.10;;;;;;7414555;19;20364;-77
2023/08/04 08:11:48;;;;;;;16.30;6.20;;;20.20;96.90;;;;;;7393186;19;20544;-79
2023/08/04 08:14:26;;;;;;;16.70;6.60;;;20.20;96.60;;;;;;7395166;19;20011;-79
2023/08/04 08:16:58;;;;;;;14.68;6.40;;;20.30;96.40;;;;;;7400391;19;20078;-79
2023/08/04 08:19:26;;;;;;;;;;;20.20;96.10;;;;;;7404323;19;20011;-78
2023/08/04 08:21:55;;;;;;;21.75;6.47;;;20.40;96.20;;;;;;7401420;19;21578;-77
2023/08/04 08:24:24;;;;;;;11.10;5.25;;;20.30;96.20;;;;;;7419399;19;20007;-77
2023/08/04 08:26:52;;;;;;;12.73;5.50;;;20.20;96.40;;;;;;7396696;19;20003;-77
2023/08/04 08:29:21;;;;;;;11.23;5.85;;;20.40;96.60;;;;;;7388128;19;20255;-76
2023/08/04 08:31:50;;;;;;;13.27;5.57;;;20.50;96.10;;;;;;7386636;19;19999;-77
2023/08/04 08:58:07;;;;;;;18.00;6.28;;;20.60;95.60;;;;;;6239293;19;6787249;-79
2023/08/04 09:00:37;;;;;;;9.95;5.82;;;20.70;94.70;;;;;;7424309;19;20037;-80
2023/08/04 09:03:10;;;;;;;11.73;5.82;;;20.70;94.70;;;;;;7448586;19;20025;-81
2023/08/04 09:05:42;;;;;;;13.77;5.25;;;20.70;94.80;;;;;;7423485;19;20007;-84
2023/08/04 09:08:38;;;;;;;13.70;6.25;;;20.80;94.90;;;;;;7418232;19;20005;-85
2023/08/04 09:11:27;;;;;;;12.75;5.53;;;20.90;94.70;;;;;;7419343;19;20006;-83
2023/08/04 09:13:59;;;;;;;12.27;5.47;;;20.80;94.70;;;;;;7417979;19;20014;-80
2023/08/04 09:16:41;;;;;;;9.15;5.03;;;20.70;94.70;;;;;;7420105;19;20235;-80
2023/08/04 09:19:49;;;;;;;8.77;5.53;;;20.80;94.80;;;;;;7443626;19;20031;-84
2023/08/04 09:22:27;;;;;;;13.32;6.07;;;20.90;94.50;;;;;;7446903;19;20009;-85
2023/08/04 09:27:33;;;;;;;17.52;5.65;;;20.70;94.40;;;;;;7428538;19;20007;-74
2023/08/04 09:30:06;;;;;;;17.77;6.30;;;20.50;94.50;;;;;;7413811;19;20003;-76
2023/08/04 09:32:42;;;;;;;12.55;6.45;;;20.70;94.60;;;;;;7413588;19;20007;-77
2023/08/04 09:37:58;;;;;;;12.40;6.63;;;20.90;94.40;;;;;;7418105;19;20045;-77
2023/08/04 09:40:28;;;;;;;12.85;6.30;;;21.00;94.00;;;;;;7417390;19;20022;-80
2023/08/04 09:43:00;;;;;;;15.80;5.97;;;21.00;94.20;;;;;;7416180;19;20426;-81
2023/08/04 09:45:56;;;;;;;17.15;6.72;;;21.00;94.20;;;;;;7437656;19;20003;-81
2023/08/04 09:52:38;;;;;;;9.82;5.60;;;21.10;93.60;;;;;;7445249;19;19991;-86
2023/08/04 09:55:11;;;;;;;10.63;4.83;;;20.90;94.20;;;;;;7209912;19;2004477;-80
2023/08/04 09:57:49;;;;;;;12.57;5.25;;;20.90;93.80;;;;;;7422189;19;20015;-82
2023/08/04 10:00:32;;;;;;;13.05;4.75;;;21.00;93.00;;;;;;7389506;19;20020;-88
2023/08/04 10:53:29;;;;;;;6.78;3.60;;;22.50;88.20;;;;;;7386626;19;20326;-80
2023/08/04 10:56:21;;;;;;;;;;;;;;;;;;;;;
2023/08/04 10:58:58;;;;;;;10.25;3.38;;;22.40;87.90;;;;;;7391868;19;20254;-79
2023/08/04 11:01:31;;;;;;;4.63;2.80;;;22.30;85.70;;;;;;7392405;19;20036;-80
2023/08/04 11:04:01;;;;;;;4.97;3.22;;;22.10;85.70;;;;;;7416085;19;20007;-79
2023/08/04 11:36:34;;;;;;;2.95;2.50;;;22.80;83.30;;;;;;7389022;19;19999;-80
2023/08/04 11:39:05;;;;;;;4.55;2.60;;;22.80;81.20;;;;;;7387595;19;20039;-79
2023/08/04 11:41:39;;;;;;;;;;;22.70;81.20;;;;;;7409716;19;20031;-81
2023/08/04 11:44:13;;;;;;;;;;;22.80;83.00;;;;;;7387084;19;19907;-81
2023/08/04 11:49:36;;;;;;;;;;;23.00;80.80;;;;;;7389221;19;20331;-85
2023/08/04 12:00:38;;;;;;;;;;;22.60;89.90;;;;;;7334353;19;20239;-81
2023/08/04 12:03:07;;;;;;;;;;;22.40;91.60;;;;;;7385607;19;19915;-79
2023/08/04 12:20:41;;;;;;;;;;;21.50;93.70;;;;;;7387870;19;19914;-82
2023/08/04 12:23:19;;;;;;;;;;;21.50;94.00;;;;;;7391248;19;19915;-80
2023/08/04 12:29:10;;;;;;;;;;;21.10;93.80;;;;;;7368659;19;19918;-83
2023/08/04 12:34:50;;;;;;;;;;;21.10;94.40;;;;;;7388086;19;19945;-82
2023/08/04 12:37:21;;;;;;;;;;;21.00;95.20;;;;;;7412027;19;19911;-82
2023/08/04 12:39:52;;;;;;;;;;;20.70;95.20;;;;;;7399470;19;19939;-81
2023/08/04 12:42:29;;;;;;;;;;;20.70;95.60;;;;;;7401282;19;19907;-82
2023/08/04 12:45:02;;;;;;;;;;;20.60;96.50;;;;;;7402778;19;19957;-82
2023/08/04 12:48:06;;;;;;;;;;;;;;;;;;;;;
2023/08/04 12:50:35;;;;;;;;;;;20.70;96.50;;;;;;7384821;19;20971;-79
2023/08/04 12:53:08;;;;;;;;;;;20.70;95.80;;;;;;7386683;19;19915;-83
2023/08/04 12:55:58;;;;;;;;;;;20.80;96.10;;;;;;7389421;19;19911;-81
2023/08/04 13:04:00;;;;;;;;;;;21.00;97.50;;;;;;7381988;19;19923;-79
2023/08/04 13:06:29;;;;;;;;;;;21.10;96.00;;;;;;7383761;19;19911;-79
2023/08/04 13:08:57;;;;;;;;;;;21.30;94.80;;;;;;7386489;19;19942;-78
2023/08/04 13:11:47;;;;;;;;;;;21.40;94.50;;;;;;7404289;19;20214;-84
2023/08/04 13:14:18;;;;;;;;;;;21.40;94.60;;;;;;7387615;19;19935;-80
2023/08/04 13:16:46;;;;;;;;;;;21.60;93.80;;;;;;7383922;19;19968;-76
2023/08/04 13:19:15;;;;;;;;;;;21.70;93.10;;;;;;7384615;19;19969;-82
2023/08/04 13:21:44;;;;;;;;;;;21.70;93.10;;;;;;7385692;19;20137;-82
2023/08/04 13:24:15;;;;;;;;;;;21.80;93.00;;;;;;7384727;19;19915;-78
2023/08/04 13:29:41;;;;;;;;;;;21.80;92.00;;;;;;7382344;19;19911;-78
2023/08/04 13:32:10;;;;;;;;;;;21.70;91.20;;;;;;7407787;19;19922;-79
2023/08/04 13:34:40;;;;;;;;;;;21.80;91.50;;;;;;7391735;19;19911;-80
2023/08/04 13:43:00;;;;;;;;;;;21.80;90.40;;;;;;7387022;19;19982;-83
2023/08/04 13:45:32;;;;;;;;;;;21.70;90.60;;;;;;7394105;19;19955;-81
2023/08/04 13:48:34;;;;;;;;;;;21.80;90.00;;;;;;7388433;19;19918;-82
2023/08/04 13:57:09;;;;;;;;;;;22.10;89.50;;;;;;7412279;19;19899;-85
2023/08/04 14:02:40;;;;;;;;;;;22.40;88.80;;;;;;7366130;19;19962;-83
2023/08/04 14:05:10;;;;;;;;;;;22.60;87.10;;;;;;7408349;19;19923;-78
2023/08/04 14:07:41;;;;;;;;;;;22.70;87.60;;;;;;7388412;19;19914;-80
2023/08/04 14:10:21;;;;;;;;;;;22.80;88.30;;;;;;7413434;19;19921;-82
2023/08/04 14:18:32;;;;;;;;;;;22.60;89.10;;;;;;7393291;19;19913;-80
2023/08/04 14:21:07;;;;;;;;;;;22.60;88.50;;;;;;7385909;19;19922;-79
2023/08/04 14:23:35;;;;;;;;;;;22.60;88.00;;;;;;7413302;19;19938;-81
2023/08/04 14:26:04;;;;;;;;;;;22.90;89.20;;;;;;7388976;19;19936;-81
2023/08/04 14:28:33;;;;;;;;;;;23.00;88.20;;;;;;7391489;19;19917;-83
2023/08/04 14:31:07;;;;;;;;;;;23.00;88.50;;;;;;7391919;19;19907;-81
2023/08/04 14:33:49;;;;;;;;;;;22.80;90.80;;;;;;7389584;19;19915;-80
2023/08/04 14:36:18;;;;;;;;;;;22.50;90.90;;;;;;7395385;19;19926;-80
2023/08/04 14:38:46;;;;;;;;;;;22.20;92.10;;;;;;7413924;19;19911;-79
2023/08/04 14:41:17;;;;;;;;;;;22.00;91.90;;;;;;7393241;19;19906;-80
2023/08/04 14:43:53;;;;;;;;;;;21.80;93.30;;;;;;7387453;19;20295;-78
2023/08/04 14:46:26;;;;;;;;;;;21.90;92.00;;;;;;7395888;19;19915;-80
2023/08/04 14:49:04;;;;;;;;;;;22.10;93.80;;;;;;7405178;19;19935;-79
2023/08/04 14:51:34;;;;;;;;;;;22.30;91.40;;;;;;7400442;19;19917;-79
2023/08/04 14:54:09;;;;;;;;;;;22.40;92.20;;;;;;7406622;19;19918;-80
2023/08/04 14:56:38;;;;;;;;;;;22.30;91.30;;;;;;7428663;19;19936;-80
2023/08/04 14:59:41;;;;;;;;;;;;;;;;;;;;;
2023/08/04 15:08:13;;;;;;;;;;;22.60;90.70;;;;;;7388594;19;19919;-80
2023/08/04 15:10:42;;;;;;;;;;;22.60;88.40;;;;;;7406551;19;19910;-78
2023/08/04 15:13:11;;;;;;;;;;;22.50;88.70;;;;;;7385147;19;19910;-77
2023/08/04 15:15:39;;;;;;;;;;;22.60;88.70;;;;;;7383421;19;20232;-78
2023/08/04 15:18:07;;;;;;;;;;;22.60;89.00;;;;;;7384406;19;19919;-77
2023/08/04 15:20:36;;;;;;;;;;;22.80;88.70;;;;;;7404795;19;19967;-76
2023/08/04 15:23:04;;;;;;;;;;;22.90;88.40;;;;;;7381598;19;19911;-76
2023/08/04 15:25:35;;;;;;;;;;;22.90;87.30;;;;;;7382243;19;19907;-76
2023/08/04 15:28:06;;;;;;;;;;;22.70;85.80;;;;;;7381658;19;19907;-76
2023/08/04 15:30:36;;;;;;;;;;;22.70;84.70;;;;;;7380662;19;20394;-77
2023/08/04 15:33:05;;;;;;;;;;;22.80;81.80;;;;;;7384463;19;19978;-77
2023/08/04 15:35:34;;;;;;;;;;;22.70;80.60;;;;;;7404092;19;20211;-77
2023/08/04 15:38:03;;;;;;;;;;;22.60;80.00;;;;;;7383479;19;19958;-76
2023/08/04 15:40:40;;;;;;;;;;;22.60;77.50;;;;;;7386035;19;19910;-78
2023/08/04 15:43:12;;;;;;;;;;;22.40;79.80;;;;;;7388635;19;19917;-80
2023/08/04 15:45:41;;;;;;;;;;;22.30;81.30;;;;;;7389962;19;20262;-79
2023/08/04 15:48:11;;;;;;;;;;;22.20;83.40;;;;;;7383964;19;19907;-77
2023/08/04 16:05:22;;;;;;;;;;;22.30;86.00;;;;;;7410748;19;19907;-80
2023/08/04 16:39:58;;;;;;;;;;;21.60;92.10;;;;;;7384637;19;19915;-78
2023/08/04 16:59:26;;;;;;;;;;;21.70;91.10;;;;;;7424202;19;19915;-80
2023/08/04 17:04:59;;;;;;;;;;;21.80;91.30;;;;;;7377128;19;19911;-78
2023/08/04 17:07:27;;;;;;;;;;;21.90;91.00;;;;;;7417534;19;19969;-78
2023/08/04 17:10:00;;;;;;;;;;;21.90;91.00;;;;;;7390580;19;19923;-80
2023/08/04 17:12:29;;;;;;;;;;;22.00;91.20;;;;;;7393629;19;19919;-76
2023/08/04 17:15:03;;;;;;;;;;;21.90;91.30;;;;;;7388093;19;20169;-78
2023/08/04 17:17:32;;;;;;;;;;;21.80;91.40;;;;;;7409539;19;19966;-76
2023/08/04 17:20:00;;;;;;;;;;;21.70;91.80;;;;;;7387560;19;19914;-76
2023/08/04 17:22:29;;;;;;;;;;;21.70;92.10;;;;;;7386237;19;20153;-77
2023/08/04 17:24:57;;;;;;;;;;;21.70;92.20;;;;;;7385098;19;19939;-77
2023/08/04 17:27:26;;;;;;;;;;;21.60;91.90;;;;;;7384291;19;19911;-77
2023/08/04 17:29:54;;;;;;;;;;;21.60;92.10;;;;;;7383156;19;19924;-76
2023/08/04 17:32:30;;;;;;;;;;;21.70;92.10;;;;;;7408911;19;19923;-77
2023/08/04 17:34:58;;;;;;;;;;;21.70;92.20;;;;;;7385652;19;19914;-77
2023/08/04 17:37:27;;;;;;;;;;;21.80;92.20;;;;;;7386726;19;20276;-76
2023/08/04 17:39:55;;;;;;;;;;;21.80;92.10;;;;;;7386646;19;20024;-76
2023/08/04 17:42:24;;;;;;;;;;;21.80;92.00;;;;;;7385592;19;20279;-77